Observation data for Andrews on 08/11/2019      Previous  Date  Next       Current Mesonet Observations  Soil Data  Daily Summary Page  Observations in Plain Language
KANS 110500Z 18006KT 29/13 A3001 RMK A01 T02930134  RH  038%=      5-min Rain = 0
KANS 110505Z 18006KT 29/13 A3001 RMK A01 T02920134  RH  039%=      5-min Rain = 0
KANS 110510Z 18006KT 29/13 A3001 RMK A01 T02910134  RH  039%=      5-min Rain = 0
KANS 110515Z 19006KT 29/14 A3001 RMK A01 T02900135  RH  039%=      5-min Rain = 0
KANS 110520Z 19005KT 29/14 A3001 RMK A01 T02880135  RH  040%=      5-min Rain = 0
KANS 110525Z 19007KT 29/14 A3001 RMK A01 T02880135  RH  040%=      5-min Rain = 0
KANS 110530Z 19006KT 29/14 A3001 RMK A01 T02870135  RH  040%=      5-min Rain = 0
KANS 110535Z 19007KT 29/14 A3001 RMK A01 T02870135  RH  040%=      5-min Rain = 0
KANS 110540Z 18006KT 29/14 A3001 RMK A01 T02860135  RH  040%=      5-min Rain = 0
KANS 110545Z 17006KT 29/14 A3001 RMK A01 T02850135  RH  040%=      5-min Rain = 0
KANS 110550Z 17005KT 28/14 A3001 RMK A01 T02840135  RH  041%=      5-min Rain = 0
KANS 110555Z 17005KT 28/14 A3001 RMK A01 T02830135  RH  041%=      5-min Rain = 0
KANS 110600Z 17006KT 28/13 A3001 RMK A01 T02830134  RH  041%=      5-min Rain = 0
KANS 110605Z 17005KT 28/13 A3001 RMK A01 T02820134  RH  041%=      5-min Rain = 0
KANS 110610Z 17005KT 28/13 A3001 RMK A01 T02800133  RH  041%=      5-min Rain = 0
KANS 110615Z 16005KT 28/13 A3001 RMK A01 T02800133  RH  041%=      5-min Rain = 0
KANS 110620Z 16006KT 28/13 A3001 RMK A01 T02790133  RH  041%=      5-min Rain = 0
KANS 110625Z 16005KT 28/13 A3001 RMK A01 T02780132  RH  042%=      5-min Rain = 0
KANS 110630Z 16006KT 28/13 A3001 RMK A01 T02770132  RH  042%=      5-min Rain = 0
KANS 110635Z 16006KT 28/13 A3001 RMK A01 T02770132  RH  041%=      5-min Rain = 0
KANS 110640Z 17006KT 28/13 A3001 RMK A01 T02770131  RH  041%=      5-min Rain = 0
KANS 110645Z 17006KT 28/13 A3001 RMK A01 T02760131  RH  042%=      5-min Rain = 0
KANS 110650Z 17006KT 28/13 A3001 RMK A01 T02750131  RH  042%=      5-min Rain = 0
KANS 110655Z 16007KT 27/13 A3001 RMK A01 T02740131  RH  042%=      5-min Rain = 0
KANS 110700Z 16007KT 28/13 A3001 RMK A01 T02750130  RH  041%=      5-min Rain = 0
KANS 110705Z 16007KT 28/13 A3001 RMK A01 T02760128  RH  041%=      5-min Rain = 0
KANS 110710Z 16007KT 28/13 A3001 RMK A01 T02770127  RH  040%=      5-min Rain = 0
KANS 110715Z 16007KT 28/13 A3001 RMK A01 T02770126  RH  040%=      5-min Rain = 0
KANS 110720Z 15006KT 28/13 A3001 RMK A01 T02770126  RH  040%=      5-min Rain = 0
KANS 110725Z 15006KT 28/13 A3001 RMK A01 T02760126  RH  040%=      5-min Rain = 0
KANS 110730Z 15006KT 28/13 A3001 RMK A01 T02750126  RH  041%=      5-min Rain = 0
KANS 110735Z 16006KT 27/13 A3001 RMK A01 T02730127  RH  041%=      5-min Rain = 0
KANS 110740Z 16006KT 27/13 A3001 RMK A01 T02710129  RH  042%=      5-min Rain = 0
KANS 110745Z 16006KT 27/13 A3001 RMK A01 T02690129  RH  043%=      5-min Rain = 0
KANS 110750Z 16006KT 27/13 A3001 RMK A01 T02680130  RH  043%=      5-min Rain = 0
KANS 110755Z 16006KT 27/13 A3001 RMK A01 T02660130  RH  044%=      5-min Rain = 0
KANS 110800Z 15005KT 27/13 A3001 RMK A01 T02650130  RH  044%=      5-min Rain = 0
KANS 110805Z 15005KT 26/13 A3001 RMK A01 T02630130  RH  044%=      5-min Rain = 0
KANS 110810Z 15005KT 26/13 A3001 RMK A01 T02620130  RH  045%=      5-min Rain = 0
KANS 110815Z 15006KT 26/13 A3001 RMK A01 T02600130  RH  045%=      5-min Rain = 0
KANS 110820Z 15006KT 26/13 A3001 RMK A01 T02590130  RH  046%=      5-min Rain = 0
KANS 110825Z 15005KT 26/13 A3001 RMK A01 T02590129  RH  045%=      5-min Rain = 0
KANS 110830Z 15005KT 26/13 A3001 RMK A01 T02590129  RH  045%=      5-min Rain = 0
KANS 110835Z 15005KT 26/13 A3001 RMK A01 T02580128  RH  045%=      5-min Rain = 0
KANS 110840Z 15005KT 26/13 A3001 RMK A01 T02590128  RH  045%=      5-min Rain = 0
KANS 110845Z 15005KT 26/13 A3001 RMK A01 T02590127  RH  045%=      5-min Rain = 0
KANS 110850Z 15005KT 26/13 A3001 RMK A01 T02590127  RH  045%=      5-min Rain = 0
KANS 110855Z 15005KT 26/13 A3001 RMK A01 T02590127  RH  045%=      5-min Rain = 0
KANS 110900Z 14006KT 26/13 A3001 RMK A01 T02600127  RH  045%=      5-min Rain = 0
KANS 110905Z 15005KT 26/13 A3001 RMK A01 T02600128  RH  045%=      5-min Rain = 0
KANS 110910Z 15005KT 26/13 A3001 RMK A01 T02590128  RH  045%=      5-min Rain = 0
KANS 110915Z 15005KT 26/13 A3002 RMK A01 T02570129  RH  046%=      5-min Rain = 0
KANS 110920Z 15005KT 26/13 A3001 RMK A01 T02560129  RH  046%=      5-min Rain = 0
KANS 110925Z 15006KT 26/13 A3001 RMK A01 T02550129  RH  046%=      5-min Rain = 0
KANS 110930Z 15006KT 26/13 A3001 RMK A01 T02550129  RH  047%=      5-min Rain = 0
KANS 110935Z 15006KT 25/13 A3001 RMK A01 T02540129  RH  047%=      5-min Rain = 0
KANS 110940Z 16007KT 25/13 A3001 RMK A01 T02540129  RH  047%=      5-min Rain = 0
KANS 110945Z 16007KT 26/13 A3001 RMK A01 T02550129  RH  046%=      5-min Rain = 0
KANS 110950Z 16006KT 25/13 A3001 RMK A01 T02540128  RH  046%=      5-min Rain = 0
KANS 110955Z 16006KT 25/13 A3001 RMK A01 T02530128  RH  047%=      5-min Rain = 0
KANS 111000Z 16006KT 25/13 A3001 RMK A01 T02510129  RH  047%=      5-min Rain = 0
KANS 111005Z 17005KT 25/13 A3001 RMK A01 T02500129  RH  048%=      5-min Rain = 0
KANS 111010Z 17004KT 25/13 A3001 RMK A01 T02480129  RH  048%=      5-min Rain = 0
KANS 111015Z 17004KT 25/13 A3001 RMK A01 T02460129  RH  049%=      5-min Rain = 0
KANS 111020Z 16004KT 25/13 A3001 RMK A01 T02450129  RH  049%=      5-min Rain = 0
KANS 111025Z 15004KT 24/13 A3001 RMK A01 T02430129  RH  050%=      5-min Rain = 0
KANS 111030Z 15005KT 24/13 A3001 RMK A01 T02410129  RH  051%=      5-min Rain = 0
KANS 111035Z 15004KT 24/13 A3001 RMK A01 T02390129  RH  051%=      5-min Rain = 0
KANS 111040Z 16004KT 24/13 A3001 RMK A01 T02380130  RH  052%=      5-min Rain = 0
KANS 111045Z 17004KT 24/13 A3002 RMK A01 T02360130  RH  052%=      5-min Rain = 0
KANS 111050Z 19005KT 23/13 A3002 RMK A01 T02340130  RH  053%=      5-min Rain = 0
KANS 111055Z 20004KT 23/13 A3002 RMK A01 T02330130  RH  053%=      5-min Rain = 0
KANS 111100Z 17004KT 23/13 A3002 RMK A01 T02320130  RH  054%=      5-min Rain = 0
KANS 111105Z 16003KT 23/13 A3002 RMK A01 T02320130  RH  054%=      5-min Rain = 0
KANS 111110Z 17004KT 23/13 A3002 RMK A01 T02310130  RH  054%=      5-min Rain = 0
KANS 111115Z 17005KT 23/13 A3002 RMK A01 T02300129  RH  054%=      5-min Rain = 0
KANS 111120Z 16005KT 23/13 A3002 RMK A01 T02290129  RH  055%=      5-min Rain = 0
KANS 111125Z 15005KT 23/13 A3002 RMK A01 T02280129  RH  055%=      5-min Rain = 0
KANS 111130Z 15004KT 23/13 A3002 RMK A01 T02270129  RH  055%=      5-min Rain = 0
KANS 111135Z 16004KT 23/13 A3002 RMK A01 T02260129  RH  055%=      5-min Rain = 0
KANS 111140Z 15004KT 23/13 A3002 RMK A01 T02250129  RH  056%=      5-min Rain = 0
KANS 111145Z 16004KT 23/13 A3002 RMK A01 T02250130  RH  056%=      5-min Rain = 0
KANS 111150Z 17004KT 22/13 A3002 RMK A01 T02240130  RH  056%=      5-min Rain = 0
KANS 111155Z 18004KT 22/13 A3003 RMK A01 T02230130  RH  057%=      5-min Rain = 0
KANS 111200Z 18004KT 22/13 A3003 RMK A01 T02220130  RH  057%=      5-min Rain = 0
KANS 111205Z 18004KT 22/13 A3003 RMK A01 T02220130  RH  057%=      5-min Rain = 0
KANS 111210Z 17004KT 22/13 A3003 RMK A01 T02230129  RH  057%=      5-min Rain = 0
KANS 111215Z 17004KT 22/13 A3003 RMK A01 T02230129  RH  056%=      5-min Rain = 0
KANS 111220Z 16004KT 22/13 A3003 RMK A01 T02230129  RH  056%=      5-min Rain = 0
KANS 111225Z 17004KT 22/13 A3004 RMK A01 T02230129  RH  056%=      5-min Rain = 0
KANS 111230Z 17004KT 22/13 A3004 RMK A01 T02230129  RH  057%=      5-min Rain = 0
KANS 111235Z 17003KT 22/13 A3004 RMK A01 T02230130  RH  057%=      5-min Rain = 0
KANS 111240Z 17003KT 23/13 A3004 RMK A01 T02250130  RH  056%=      5-min Rain = 0
KANS 111245Z 17003KT 23/13 A3004 RMK A01 T02270131  RH  056%=      5-min Rain = 0
KANS 111250Z 17004KT 23/13 A3004 RMK A01 T02290131  RH  055%=      5-min Rain = 0
KANS 111255Z 17005KT 23/13 A3004 RMK A01 T02310131  RH  054%=      5-min Rain = 0
KANS 111300Z 18005KT 24/13 A3005 RMK A01 T02350132  RH  053%=      5-min Rain = 0
KANS 111305Z 18005KT 24/13 A3005 RMK A01 T02390131  RH  052%=      5-min Rain = 0
KANS 111310Z 18005KT 24/13 A3005 RMK A01 T02430131  RH  051%=      5-min Rain = 0
KANS 111315Z 18006KT 25/13 A3005 RMK A01 T02470132  RH  050%=      5-min Rain = 0
KANS 111320Z 17007KT 25/13 A3005 RMK A01 T02510133  RH  049%=      5-min Rain = 0
KANS 111325Z 17006KT 26/14 A3005 RMK A01 T02560135  RH  048%=      5-min Rain = 0
KANS 111330Z 17008KT 26/14 A3005 RMK A01 T02610137  RH  047%=      5-min Rain = 0
KANS 111335Z 17009KT 27/14 A3005 RMK A01 T02650139  RH  047%=      5-min Rain = 0
KANS 111340Z 16011G17KT 27/14 A3005 RMK A01 T02680139  RH  046%=      5-min Rain = 0
KANS 111345Z 16010KT 27/14 A3005 RMK A01 T02700141  RH  046%=      5-min Rain = 0
KANS 111350Z 16011KT 27/14 A3005 RMK A01 T02720141  RH  045%=      5-min Rain = 0
KANS 111355Z 17013KT 27/14 A3006 RMK A01 T02730141  RH  045%=      5-min Rain = 0
KANS 111400Z 17009G14KT 28/14 A3006 RMK A01 T02750144  RH  046%=      5-min Rain = 0
KANS 111405Z 18012G17KT 28/14 A3006 RMK A01 T02770143  RH  045%=      5-min Rain = 0
KANS 111410Z 18011G17KT 28/14 A3006 RMK A01 T02790143  RH  044%=      5-min Rain = 0
KANS 111415Z 17013G18KT 28/14 A3006 RMK A01 T02800143  RH  044%=      5-min Rain = 0
KANS 111420Z 17012G18KT 28/14 A3006 RMK A01 T02800143  RH  044%=      5-min Rain = 0
KANS 111425Z 17012G17KT 28/14 A3006 RMK A01 T02820143  RH  044%=      5-min Rain = 0
KANS 111430Z 18013KT 28/14 A3006 RMK A01 T02840144  RH  043%=      5-min Rain = 0
KANS 111435Z 17014KT 29/14 A3006 RMK A01 T02850144  RH  043%=      5-min Rain = 0
KANS 111440Z 17011KT 29/15 A3006 RMK A01 T02880145  RH  043%=      5-min Rain = 0
KANS 111445Z 17012G17KT 29/15 A3006 RMK A01 T02920145  RH  042%=      5-min Rain = 0
KANS 111450Z 17012G17KT 30/14 A3006 RMK A01 T02960144  RH  041%=      5-min Rain = 0
KANS 111455Z 16011KT 30/14 A3006 RMK A01 T02970144  RH  040%=      5-min Rain = 0
KANS 111500Z 16011G16KT 30/14 A3006 RMK A01 T02990143  RH  040%=      5-min Rain = 0
KANS 111505Z 16011G16KT 30/14 A3006 RMK A01 T03010143  RH  039%=      5-min Rain = 0
KANS 111510Z 16011G17KT 30/14 A3006 RMK A01 T03010143  RH  039%=      5-min Rain = 0
KANS 111515Z 18011G16KT 31/14 A3006 RMK A01 T03070142  RH  037%=      5-min Rain = 0
KANS 111520Z 17010G17KT 31/14 A3007 RMK A01 T03100143  RH  037%=      5-min Rain = 0
KANS 111525Z 17012G17KT 31/14 A3007 RMK A01 T03100140  RH  036%=      5-min Rain = 0
KANS 111530Z 17012KT 31/14 A3007 RMK A01 T03100141  RH  036%=      5-min Rain = 0
KANS 111535Z 17012G17KT 31/14 A3007 RMK A01 T03100140  RH  036%=      5-min Rain = 0
KANS 111540Z 17011KT 31/14 A3007 RMK A01 T03140139  RH  035%=      5-min Rain = 0
KANS 111545Z 18011G16KT 32/14 A3008 RMK A01 T03160138  RH  035%=      5-min Rain = 0
KANS 111550Z 18010G17KT 32/14 A3008 RMK A01 T03170138  RH  034%=      5-min Rain = 0
KANS 111555Z 18010G17KT 32/14 A3008 RMK A01 T03180137  RH  034%=      5-min Rain = 0
KANS 111600Z 17011KT 32/14 A3008 RMK A01 T03200138  RH  034%=      5-min Rain = 0
KANS 111605Z 17012G17KT 32/14 A3008 RMK A01 T03230137  RH  033%=      5-min Rain = 0
KANS 111610Z 17011G16KT 32/14 A3008 RMK A01 T03210135  RH  033%=      5-min Rain = 0
KANS 111615Z 18011KT 32/14 A3008 RMK A01 T03230136  RH  033%=      5-min Rain = 0
KANS 111620Z 18010G16KT 33/13 A3008 RMK A01 T03250133  RH  032%=      5-min Rain = 0
KANS 111625Z 17010KT 33/14 A3008 RMK A01 T03300135  RH  031%=      5-min Rain = 0
KANS 111630Z 17011G16KT 33/13 A3008 RMK A01 T03320133  RH  031%=      5-min Rain = 0
KANS 111635Z 18009G15KT 33/13 A3007 RMK A01 T03320132  RH  030%=      5-min Rain = 0
KANS 111640Z 18010KT 33/13 A3007 RMK A01 T03340131  RH  030%=      5-min Rain = 0
KANS 111645Z 18008KT 34/13 A3007 RMK A01 T03360130  RH  029%=      5-min Rain = 0
KANS 111650Z 18008G13KT 34/13 A3007 RMK A01 T03380130  RH  029%=      5-min Rain = 0
KANS 111655Z 17007G12KT 34/13 A3007 RMK A01 T03420129  RH  028%=      5-min Rain = 0
KANS 111700Z 17008KT 34/13 A3007 RMK A01 T03420127  RH  028%=      5-min Rain = 0
KANS 111705Z 17006KT 35/13 A3007 RMK A01 T03450129  RH  028%=      5-min Rain = 0
KANS 111710Z 17006KT 35/13 A3006 RMK A01 T03500128  RH  027%=      5-min Rain = 0
KANS 111715Z 16007G13KT 35/13 A3006 RMK A01 T03500126  RH  026%=      5-min Rain = 0
KANS 111720Z 18007G12KT 35/13 A3006 RMK A01 T03470127  RH  027%=      5-min Rain = 0
KANS 111725Z 16007G12KT 35/13 A3006 RMK A01 T03480127  RH  027%=      5-min Rain = 0
KANS 111730Z 16008G13KT 35/13 A3006 RMK A01 T03540127  RH  026%=      5-min Rain = 0
KANS 111735Z 15006G13KT 35/13 A3005 RMK A01 T03530126  RH  026%=      5-min Rain = 0
KANS 111740Z 12008G13KT 35/13 A3005 RMK A01 T03540125  RH  026%=      5-min Rain = 0
KANS 111745Z 12007KT 35/12 A3005 RMK A01 T03540120  RH  025%=      5-min Rain = 0
KANS 111750Z 13009KT 36/12 A3005 RMK A01 T03560122  RH  025%=      5-min Rain = 0
KANS 111755Z 13007G12KT 36/12 A3004 RMK A01 T03590122  RH  024%=      5-min Rain = 0
KANS 111800Z 17007G13KT 36/12 A3004 RMK A01 T03610122  RH  024%=      5-min Rain = 0
KANS 111805Z 17009G14KT 36/12 A3004 RMK A01 T03610121  RH  024%=      5-min Rain = 0
KANS 111810Z 19007KT 36/12 A3004 RMK A01 T03630120  RH  024%=      5-min Rain = 0
KANS 111815Z 14007G14KT 36/12 A3004 RMK A01 T03610120  RH  024%=      5-min Rain = 0
KANS 111820Z 12006G11KT 36/12 A3004 RMK A01 T03640119  RH  023%=      5-min Rain = 0
KANS 111825Z 16008G14KT 37/12 A3003 RMK A01 T03670115  RH  022%=      5-min Rain = 0
KANS 111830Z 14011KT 37/11 A3003 RMK A01 T03660111  RH  022%=      5-min Rain = 0
KANS 111835Z 13007KT 37/11 A3003 RMK A01 T03670112  RH  022%=      5-min Rain = 0
KANS 111840Z 16009G16KT 37/11 A3003 RMK A01 T03690109  RH  021%=      5-min Rain = 0
KANS 111845Z 15009G14KT 37/10 A3003 RMK A01 T03710104  RH  020%=      5-min Rain = 0
KANS 111850Z 15007G13KT 37/10 A3002 RMK A01 T03710104  RH  020%=      5-min Rain = 0
KANS 111855Z 12007G13KT 37/10 A3002 RMK A01 T03730099  RH  019%=      5-min Rain = 0
KANS 111900Z 11009KT 37/10 A3002 RMK A01 T03730095  RH  019%=      5-min Rain = 0
KANS 111905Z 14011G16KT 37/10 A3002 RMK A01 T03740101  RH  020%=      5-min Rain = 0
KANS 111910Z 13008G14KT 37/10 A3001 RMK A01 T03720096  RH  019%=      5-min Rain = 0
KANS 111915Z 11007G14KT 38/10 A3001 RMK A01 T03770098  RH  019%=      5-min Rain = 0
KANS 111920Z 16010G15KT 38/10 A3001 RMK A01 T03770096  RH  019%=      5-min Rain = 0
KANS 111925Z 17007G12KT 37/09 A3001 RMK A01 T03730091  RH  018%=      5-min Rain = 0
KANS 111930Z 15008KT 38/09 A30 RMK A01 T03770093  RH  018%=      5-min Rain = 0
KANS 111935Z 13008G14KT 38/10 A30 RMK A01 T03770097  RH  019%=      5-min Rain = 0
KANS 111940Z 13006G11KT 38/09 A30 RMK A01 T03780094  RH  018%=      5-min Rain = 0
KANS 111945Z 13006G12KT 37/09 A30 RMK A01 T03740093  RH  019%=      5-min Rain = 0
KANS 111950Z 14008G13KT 38/10 A30 RMK A01 T03780095  RH  018%=      5-min Rain = 0
KANS 111955Z 12007G16KT 38/10 A2999 RMK A01 T03760095  RH  019%=      5-min Rain = 0
KANS 112000Z 15009G17KT 38/09 A2999 RMK A01 T03750094  RH  019%=      5-min Rain = 0
KANS 112005Z 14009G15KT 38/09 A2999 RMK A01 T03790091  RH  018%=      5-min Rain = 0
KANS 112010Z 14007G16KT 38/09 A2998 RMK A01 T03780093  RH  018%=      5-min Rain = 0
KANS 112015Z 15009G15KT 38/09 A2998 RMK A01 T03800092  RH  018%=      5-min Rain = 0
KANS 112020Z 17007G14KT 38/09 A2998 RMK A01 T03820089  RH  017%=      5-min Rain = 0
KANS 112025Z 12004G9KT 38/09 A2998 RMK A01 T03790090  RH  018%=      5-min Rain = 0
KANS 112030Z 12006G14KT 38/09 A2997 RMK A01 T03810091  RH  018%=      5-min Rain = 0
KANS 112035Z 17007G13KT 39/09 A2997 RMK A01 T03850092  RH  017%=      5-min Rain = 0
KANS 112040Z 16009G16KT 39/10 A2997 RMK A01 T03850095  RH  018%=      5-min Rain = 0
KANS 112045Z 15009G16KT 38/09 A2997 RMK A01 T03830091  RH  017%=      5-min Rain = 0
KANS 112050Z 13011G16KT 38/09 A2996 RMK A01 T03830090  RH  017%=      5-min Rain = 0
KANS 112055Z 14007KT 39/09 A2996 RMK A01 T03860088  RH  017%=      5-min Rain = 0
KANS 112100Z 12010G15KT 39/09 A2996 RMK A01 T03850085  RH  016%=      5-min Rain = 0
KANS 112105Z 11007KT 39/09 A2996 RMK A01 T03860087  RH  017%=      5-min Rain = 0
KANS 112110Z 17008G13KT 38/09 A2996 RMK A01 T03840088  RH  017%=      5-min Rain = 0
KANS 112115Z 16005G11KT 38/09 A2996 RMK A01 T03820088  RH  017%=      5-min Rain = 0
KANS 112120Z 18004G10KT 38/08 A2995 RMK A01 T03830084  RH  017%=      5-min Rain = 0
KANS 112125Z 16008G13KT 38/08 A2996 RMK A01 T03840084  RH  017%=      5-min Rain = 0
KANS 112130Z 20007G12KT 38/09 A2995 RMK A01 T03830085  RH  017%=      5-min Rain = 0
KANS 112135Z 14009G16KT 39/09 A2996 RMK A01 T03860086  RH  017%=      5-min Rain = 0
KANS 112140Z 15006G12KT 39/08 A2996 RMK A01 T03870080  RH  016%=      5-min Rain = 0
KANS 112145Z 16011G17KT 39/08 A2995 RMK A01 T03860082  RH  016%=      5-min Rain = 0
KANS 112150Z 15007G15KT 39/08 A2995 RMK A01 T03850081  RH  016%=      5-min Rain = 0
KANS 112155Z 15004G10KT 38/08 A2995 RMK A01 T03790082  RH  017%=      5-min Rain = 0
KANS 112200Z 18009G16KT 39/08 A2995 RMK A01 T03850079  RH  016%=      5-min Rain = 0
KANS 112205Z 19010G16KT 39/07 A2995 RMK A01 T03870074  RH  015%=      5-min Rain = 0
KANS 112210Z 19006G13KT 39/07 A2995 RMK A01 T03860072  RH  015%=      5-min Rain = 0
KANS 112215Z 14008G13KT 39/08 A2995 RMK A01 T03850076  RH  016%=      5-min Rain = 0
KANS 112220Z 13010G15KT 38/08 A2994 RMK A01 T03820081  RH  016%=      5-min Rain = 0
KANS 112225Z 13009G17KT 38/08 A2994 RMK A01 T03820078  RH  016%=      5-min Rain = 0
KANS 112230Z 13010KT 38/08 A2994 RMK A01 T03810081  RH  016%=      5-min Rain = 0
KANS 112235Z 12010G17KT 38/08 A2994 RMK A01 T03840078  RH  016%=      5-min Rain = 0
KANS 112240Z 14010G15KT 39/08 A2994 RMK A01 T03850078  RH  016%=      5-min Rain = 0
KANS 112245Z 14010G16KT 39/07 A2994 RMK A01 T03860073  RH  015%=      5-min Rain = 0
KANS 112250Z 12008G18KT 39/07 A2993 RMK A01 T03850071  RH  015%=      5-min Rain = 0
KANS 112255Z 14012G18KT 38/08 A2993 RMK A01 T03840077  RH  016%=      5-min Rain = 0
KANS 112300Z 13010G18KT 38/08 A2993 RMK A01 T03840077  RH  016%=      5-min Rain = 0
KANS 112305Z 13010G17KT 39/07 A2993 RMK A01 T03850070  RH  015%=      5-min Rain = 0
KANS 112310Z 14011G17KT 38/07 A2993 RMK A01 T03840068  RH  015%=      5-min Rain = 0
KANS 112315Z 15009KT 38/07 A2993 RMK A01 T03820067  RH  015%=      5-min Rain = 0
KANS 112320Z 14012KT 38/07 A2993 RMK A01 T03820073  RH  016%=      5-min Rain = 0
KANS 112325Z 13009G16KT 38/07 A2993 RMK A01 T03800073  RH  016%=      5-min Rain = 0
KANS 112330Z 14009KT 38/07 A2993 RMK A01 T03820073  RH  016%=      5-min Rain = 0
KANS 112335Z 16008G14KT 38/07 A2993 RMK A01 T03820072  RH  015%=      5-min Rain = 0
KANS 112340Z 15011G17KT 38/08 A2993 RMK A01 T03790078  RH  016%=      5-min Rain = 0
KANS 112345Z 16010G15KT 38/08 A2992 RMK A01 T03800078  RH  016%=      5-min Rain = 0
KANS 112350Z 16008KT 38/08 A2992 RMK A01 T03790078  RH  016%=      5-min Rain = 0
KANS 112355Z 13009KT 38/08 A2992 RMK A01 T03780077  RH  016%=      5-min Rain = 0
KANS 120000Z 14009G14KT 38/08 A2992 RMK A01 T03780079  RH  016%=      5-min Rain = 0
KANS 120005Z 15012G17KT 38/08 A2992 RMK A01 T03770078  RH  016%=      5-min Rain = 0
KANS 120010Z 13010G15KT 38/08 A2992 RMK A01 T03750078  RH  017%=      5-min Rain = 0
KANS 120015Z 13012G18KT 37/08 A2992 RMK A01 T03740079  RH  017%=      5-min Rain = 0
KANS 120020Z 15010G15KT 37/08 A2992 RMK A01 T03720082  RH  017%=      5-min Rain = 0
KANS 120025Z 14012G17KT 37/08 A2992 RMK A01 T03720081  RH  017%=      5-min Rain = 0
KANS 120030Z 15012G22KT 37/08 A2992 RMK A01 T03710082  RH  018%=      5-min Rain = 0
KANS 120035Z 16009G15KT 37/08 A2992 RMK A01 T03710084  RH  018%=      5-min Rain = 0
KANS 120040Z 15010G16KT 37/08 A2992 RMK A01 T03690084  RH  018%=      5-min Rain = 0
KANS 120045Z 17010KT 37/09 A2992 RMK A01 T03680086  RH  018%=      5-min Rain = 0
KANS 120050Z 16010KT 37/09 A2992 RMK A01 T03650086  RH  019%=      5-min Rain = 0
KANS 120055Z 15010KT 36/09 A2992 RMK A01 T03600086  RH  019%=      5-min Rain = 0
KANS 120100Z 15009KT 36/09 A2992 RMK A01 T03580087  RH  020%=      5-min Rain = 0
KANS 120105Z 15010KT 36/09 A2992 RMK A01 T03550088  RH  020%=      5-min Rain = 0
KANS 120110Z 15009G14KT 35/09 A2993 RMK A01 T03540088  RH  020%=      5-min Rain = 0
KANS 120115Z 15008KT 35/09 A2993 RMK A01 T03520089  RH  020%=      5-min Rain = 0
KANS 120120Z 15008KT 35/09 A2993 RMK A01 T03510089  RH  021%=      5-min Rain = 0
KANS 120125Z 15009KT 35/09 A2993 RMK A01 T03500090  RH  021%=      5-min Rain = 0
KANS 120130Z 15008KT 35/09 A2993 RMK A01 T03490090  RH  021%=      5-min Rain = 0
KANS 120135Z 15006KT 35/09 A2993 RMK A01 T03460091  RH  021%=      5-min Rain = 0
KANS 120140Z 15007KT 34/09 A2994 RMK A01 T03440093  RH  022%=      5-min Rain = 0
KANS 120145Z 15007KT 34/09 A2994 RMK A01 T03430094  RH  022%=      5-min Rain = 0
KANS 120150Z 15007KT 34/10 A2994 RMK A01 T03410095  RH  023%=      5-min Rain = 0
KANS 120155Z 15007KT 34/10 A2994 RMK A01 T03390096  RH  023%=      5-min Rain = 0
KANS 120200Z 15007KT 34/10 A2994 RMK A01 T03370096  RH  023%=      5-min Rain = 0
KANS 120205Z 15007KT 34/10 A2994 RMK A01 T03360097  RH  023%=      5-min Rain = 0
KANS 120210Z 15007KT 33/10 A2994 RMK A01 T03340097  RH  024%=      5-min Rain = 0
KANS 120215Z 15007KT 33/10 A2994 RMK A01 T03330098  RH  024%=      5-min Rain = 0
KANS 120220Z 15007KT 33/10 A2995 RMK A01 T03330098  RH  024%=      5-min Rain = 0
KANS 120225Z 15006KT 33/10 A2995 RMK A01 T03310098  RH  024%=      5-min Rain = 0
KANS 120230Z 15005KT 33/10 A2996 RMK A01 T03280099  RH  025%=      5-min Rain = 0
KANS 120235Z 15006KT 33/10 A2996 RMK A01 T03250099  RH  025%=      5-min Rain = 0
KANS 120240Z 15006KT 32/10 A2996 RMK A01 T03230100  RH  026%=      5-min Rain = 0
KANS 120245Z 16006KT 32/10 A2997 RMK A01 T03210101  RH  026%=      5-min Rain = 0
KANS 120250Z 16007KT 32/10 A2997 RMK A01 T03210101  RH  026%=      5-min Rain = 0
KANS 120255Z 16006KT 32/10 A2997 RMK A01 T03200103  RH  027%=      5-min Rain = 0
KANS 120300Z 16006KT 32/10 A2998 RMK A01 T03200103  RH  027%=      5-min Rain = 0
KANS 120305Z 16006KT 32/10 A2998 RMK A01 T03180104  RH  027%=      5-min Rain = 0
KANS 120310Z 16006KT 32/11 A2998 RMK A01 T03160105  RH  028%=      5-min Rain = 0
KANS 120315Z 15006KT 31/11 A2999 RMK A01 T03140105  RH  028%=      5-min Rain = 0
KANS 120320Z 16006KT 31/11 A2999 RMK A01 T03120106  RH  029%=      5-min Rain = 0
KANS 120325Z 18007KT 31/11 A30 RMK A01 T03130106  RH  028%=      5-min Rain = 0
KANS 120330Z 18008KT 31/11 A30 RMK A01 T03140107  RH  028%=      5-min Rain = 0
KANS 120335Z 17009KT 32/11 A30 RMK A01 T03170107  RH  028%=      5-min Rain = 0
KANS 120340Z 17009KT 32/11 A30 RMK A01 T03180108  RH  028%=      5-min Rain = 0
KANS 120345Z 18007KT 32/11 A30 RMK A01 T03190108  RH  028%=      5-min Rain = 0
KANS 120350Z 17007KT 32/11 A30 RMK A01 T03180108  RH  028%=      5-min Rain = 0
KANS 120355Z 17006KT 32/11 A3001 RMK A01 T03160108  RH  028%=      5-min Rain = 0
KANS 120400Z 19006KT 31/11 A3001 RMK A01 T03120108  RH  029%=      5-min Rain = 0
KANS 120405Z 19007KT 31/11 A3001 RMK A01 T03110107  RH  029%=      5-min Rain = 0
KANS 120410Z 19007KT 31/11 A3001 RMK A01 T03110107  RH  029%=      5-min Rain = 0
KANS 120415Z 18006KT 31/11 A3001 RMK A01 T03100107  RH  029%=      5-min Rain = 0
KANS 120420Z 18005KT 31/11 A3001 RMK A01 T03070107  RH  030%=      5-min Rain = 0
KANS 120425Z 18005KT 30/11 A3001 RMK A01 T03040108  RH  030%=      5-min Rain = 0
KANS 120430Z 18005KT 30/11 A3001 RMK A01 T03000108  RH  031%=      5-min Rain = 0
KANS 120435Z 18005KT 30/11 A3001 RMK A01 T02980109  RH  032%=      5-min Rain = 0
KANS 120440Z 17005KT 30/11 A3002 RMK A01 T02950109  RH  032%=      5-min Rain = 0
KANS 120445Z 16006KT 29/11 A3002 RMK A01 T02930109  RH  032%=      5-min Rain = 0
KANS 120450Z 17006KT 29/11 A3001 RMK A01 T02920109  RH  033%=      5-min Rain = 0
KANS 120455Z 17006KT 29/11 A3001 RMK A01 T02910109  RH  033%=      5-min Rain = 0

Page generated in 0.0171 seconds.